METAR Data
IDs: Format: Raw Decoded Include TAF

Data at: 2203 UTC 18 Apr 2021

LKKV 182100Z VRB02KT 7000 BKN018 04/03 Q1019